Time;durP1;ratioP1;P1;durP2;ratioP2;P2;SDS_P1;SDS_P2;PMS_P1;PMS_P2;Temp;Humidity;BMP_temperature;BMP_pressure;BME280_temperature;BME280_humidity;BME280_pressure;Samples;Min_cycle;Max_cycle;Signal;HPM_P1;HPM_P2
2022/10/23 00:01:18;;;;;;;18.47;15.43;;;12.00;99.90;;;;;;4916980;29;20468;-76
2022/10/23 00:03:47;;;;;;;16.20;14.73;;;12.00;99.90;;;;;;4916917;29;20500;-76
2022/10/23 00:06:15;;;;;;;17.57;16.03;;;12.00;99.90;;;;;;4916882;29;20997;-76
2022/10/23 00:08:46;;;;;;;17.27;15.63;;;12.00;99.90;;;;;;4917910;29;21029;-77
2022/10/23 00:11:16;;;;;;;16.90;15.10;;;12.00;99.90;;;;;;4916601;29;20876;-76
2022/10/23 00:13:44;;;;;;;16.87;15.10;;;12.00;99.90;;;;;;4916647;29;20456;-76
2022/10/23 00:16:13;;;;;;;19.03;17.17;;;11.90;99.90;;;;;;4916870;29;20474;-76
2022/10/23 00:18:43;;;;;;;19.60;16.03;;;11.90;99.90;;;;;;4917768;29;20798;-77
2022/10/23 00:21:12;;;;;;;17.20;15.40;;;11.90;99.90;;;;;;4916424;29;20484;-77
2022/10/23 00:23:40;;;;;;;17.40;15.50;;;11.90;99.90;;;;;;4916597;29;20854;-77
2022/10/23 00:26:13;;;;;;;17.47;15.27;;;11.90;99.90;;;;;;4923431;29;20530;-76
2022/10/23 00:28:42;;;;;;;17.70;15.70;;;11.90;99.90;;;;;;4919180;29;20500;-76
2022/10/23 00:31:11;;;;;;;17.80;16.10;;;11.90;99.90;;;;;;4916769;29;20528;-76
2022/10/23 00:33:42;;;;;;;18.30;16.50;;;11.90;99.90;;;;;;4916822;29;20460;-76
2022/10/23 00:36:13;;;;;;;17.80;16.07;;;11.90;99.90;;;;;;4917299;29;20448;-76
2022/10/23 00:38:44;;;;;;;17.60;15.90;;;11.90;99.90;;;;;;4916571;29;20460;-76
2022/10/23 00:41:16;;;;;;;18.20;16.30;;;11.80;99.90;;;;;;4916186;29;20472;-77
2022/10/23 00:44:03;;;;;;;18.53;16.60;;;11.80;99.90;;;;;;4916359;29;20444;-77
2022/10/23 00:46:32;;;;;;;19.40;17.43;;;11.80;99.90;;;;;;4916181;29;20460;-76
2022/10/23 00:49:03;;;;;;;17.63;15.93;;;11.80;99.90;;;;;;4916044;29;20460;-76
2022/10/23 00:51:36;;;;;;;16.57;15.03;;;11.80;99.90;;;;;;4916102;29;20570;-76
2022/10/23 00:54:05;;;;;;;17.77;16.17;;;11.80;99.90;;;;;;4916183;29;21073;-77
2022/10/23 00:56:54;;;;;;;17.77;16.10;;;11.80;99.90;;;;;;4916081;29;20446;-77
2022/10/23 00:59:22;;;;;;;17.53;15.83;;;11.80;99.90;;;;;;4917332;29;20780;-76
2022/10/23 01:01:51;;;;;;;17.30;15.63;;;11.70;99.90;;;;;;4915139;29;20533;-77
2022/10/23 01:04:21;;;;;;;16.40;14.80;;;11.80;99.90;;;;;;4917446;29;20440;-76
2022/10/23 01:06:57;;;;;;;19.40;17.33;;;11.70;99.90;;;;;;4916007;29;20448;-76
2022/10/23 01:09:31;;;;;;;18.83;17.13;;;11.70;99.90;;;;;;4917137;29;20938;-77
2022/10/23 01:12:12;;;;;;;17.53;16.00;;;11.70;99.90;;;;;;4915888;29;20571;-77
2022/10/23 01:14:50;;;;;;;17.90;16.20;;;11.70;99.90;;;;;;4917085;29;20432;-77
2022/10/23 01:17:25;;;;;;;20.03;17.60;;;11.60;99.90;;;;;;4915878;29;20450;-77
2022/10/23 01:20:07;;;;;;;18.30;16.50;;;11.70;99.90;;;;;;4915807;29;20440;-77
2022/10/23 01:22:54;;;;;;;16.67;15.17;;;11.70;99.90;;;;;;4915775;29;20452;-76
2022/10/23 01:25:39;;;;;;;17.10;15.60;;;11.60;99.90;;;;;;4917281;29;20431;-77
2022/10/23 01:28:14;;;;;;;17.00;15.30;;;11.60;99.90;;;;;;4915980;29;20441;-77
2022/10/23 01:30:44;;;;;;;17.00;15.33;;;11.60;99.90;;;;;;4915828;29;21020;-77
2022/10/23 01:33:20;;;;;;;19.90;17.57;;;11.60;99.90;;;;;;4916509;29;20452;-77
2022/10/23 01:35:56;;;;;;;16.47;14.80;;;11.60;99.90;;;;;;4915772;29;20460;-77
2022/10/23 01:38:28;;;;;;;16.40;14.90;;;11.60;99.90;;;;;;4915942;29;20848;-76
2022/10/23 01:41:03;;;;;;;16.07;14.57;;;11.60;99.90;;;;;;4915917;29;21069;-77
2022/10/23 01:43:37;;;;;;;16.10;14.70;;;11.50;99.90;;;;;;4915696;29;20449;-77
2022/10/23 01:46:10;;;;;;;17.50;15.70;;;11.50;99.90;;;;;;4916497;29;20523;-76
2022/10/23 01:48:42;;;;;;;18.27;16.33;;;11.50;99.90;;;;;;4915643;29;20440;-77
2022/10/23 01:51:14;;;;;;;16.60;15.07;;;11.50;99.90;;;;;;4915466;29;20487;-76
2022/10/23 01:53:46;;;;;;;17.37;15.60;;;11.50;99.90;;;;;;4915870;29;20993;-77
2022/10/23 01:56:18;;;;;;;17.13;15.43;;;11.50;99.90;;;;;;4915632;29;20460;-77
2022/10/23 01:58:51;;;;;;;17.63;16.00;;;11.50;99.90;;;;;;4915561;29;20524;-76
2022/10/23 02:01:25;;;;;;;16.97;15.23;;;11.50;99.90;;;;;;4915625;29;20513;-77
2022/10/23 02:03:54;;;;;;;20.23;16.03;;;11.50;99.90;;;;;;4915432;29;20445;-77
2022/10/23 02:06:22;;;;;;;16.90;15.33;;;11.50;99.90;;;;;;4915688;29;20463;-77
2022/10/23 02:08:50;;;;;;;17.40;15.70;;;11.40;99.90;;;;;;4915398;29;20467;-76
2022/10/23 02:11:20;;;;;;;18.33;15.80;;;11.40;99.90;;;;;;4915260;29;20830;-77
2022/10/23 02:13:55;;;;;;;17.27;15.70;;;11.40;99.90;;;;;;4920072;29;20427;-77
2022/10/23 02:16:31;;;;;;;17.43;15.73;;;11.40;99.90;;;;;;4918786;29;20440;-77
2022/10/23 02:19:12;;;;;;;18.43;16.67;;;11.40;99.90;;;;;;4918782;29;20448;-77
2022/10/23 02:21:51;;;;;;;18.23;16.30;;;11.40;99.90;;;;;;4920004;29;20803;-77
2022/10/23 02:24:25;;;;;;;18.13;16.33;;;11.40;99.90;;;;;;4919911;29;20428;-77
2022/10/23 02:26:57;;;;;;;17.50;15.90;;;11.30;99.90;;;;;;4919653;29;20459;-77
2022/10/23 02:29:30;;;;;;;18.27;16.37;;;11.30;99.90;;;;;;4918632;29;20479;-77
2022/10/23 02:32:00;;;;;;;17.77;16.17;;;11.30;99.90;;;;;;4919969;29;20487;-77
2022/10/23 02:34:28;;;;;;;18.07;16.30;;;11.30;99.90;;;;;;4918504;29;21005;-76
2022/10/23 02:36:57;;;;;;;17.73;15.73;;;11.30;99.90;;;;;;4918396;29;20456;-76
2022/10/23 02:39:27;;;;;;;16.20;14.67;;;11.30;99.90;;;;;;4918431;29;20973;-76
2022/10/23 02:42:02;;;;;;;17.30;15.50;;;11.20;99.90;;;;;;4918870;29;20476;-77
2022/10/23 02:44:43;;;;;;;17.67;15.93;;;11.20;99.90;;;;;;4918585;29;20507;-77
2022/10/23 02:47:21;;;;;;;18.00;16.10;;;11.20;99.90;;;;;;4918244;29;20499;-77
2022/10/23 02:49:57;;;;;;;17.90;15.97;;;11.10;99.90;;;;;;4918273;29;20448;-77
2022/10/23 02:52:32;;;;;;;17.50;15.90;;;11.10;99.90;;;;;;4918193;29;20440;-77
2022/10/23 02:55:10;;;;;;;18.43;16.73;;;11.10;99.90;;;;;;4918146;29;20495;-77
2022/10/23 02:57:53;;;;;;;17.43;15.70;;;11.10;99.90;;;;;;4918457;29;20449;-77
2022/10/23 03:00:24;;;;;;;18.00;16.10;;;11.10;99.90;;;;;;4918311;29;20824;-77
2022/10/23 03:02:57;;;;;;;17.00;15.40;;;11.10;99.90;;;;;;4918003;29;20444;-77
2022/10/23 03:05:32;;;;;;;18.67;16.97;;;11.00;99.90;;;;;;4917916;29;20451;-77
2022/10/23 03:08:02;;;;;;;17.20;15.60;;;11.00;99.90;;;;;;4917879;29;20441;-77
2022/10/23 03:10:30;;;;;;;17.00;15.40;;;11.00;99.90;;;;;;4919540;29;20479;-77
2022/10/23 03:12:58;;;;;;;20.57;17.60;;;11.00;99.90;;;;;;4917751;29;20512;-77
2022/10/23 03:15:31;;;;;;;19.37;17.10;;;11.00;99.90;;;;;;4918657;29;20844;-77
2022/10/23 03:17:59;;;;;;;18.03;16.40;;;10.90;99.90;;;;;;4917908;29;20449;-77
2022/10/23 03:20:28;;;;;;;17.10;15.50;;;10.90;99.90;;;;;;4918864;29;20468;-76
2022/10/23 03:22:56;;;;;;;17.90;16.10;;;10.90;99.90;;;;;;4917600;29;20444;-77
2022/10/23 03:25:24;;;;;;;22.30;20.20;;;10.90;99.90;;;;;;4918299;29;20448;-77
2022/10/23 03:27:52;;;;;;;25.00;22.50;;;10.90;99.90;;;;;;4917569;29;20487;-77
2022/10/23 03:30:20;;;;;;;24.73;22.37;;;10.90;99.90;;;;;;4917337;29;20476;-77
2022/10/23 03:32:54;;;;;;;24.20;21.80;;;10.80;99.90;;;;;;4917445;29;20445;-77
2022/10/23 03:35:22;;;;;;;26.97;24.10;;;10.80;99.90;;;;;;4918650;29;20566;-77
2022/10/23 03:37:50;;;;;;;25.20;22.73;;;10.80;99.90;;;;;;4919104;29;20432;-77
2022/10/23 03:40:19;;;;;;;28.13;25.37;;;10.80;99.90;;;;;;4917177;29;20567;-77
2022/10/23 03:42:47;;;;;;;27.27;24.50;;;10.80;99.90;;;;;;4918060;29;20459;-77
2022/10/23 03:45:19;;;;;;;24.90;22.50;;;10.80;99.90;;;;;;4917316;29;20488;-77
2022/10/23 03:47:50;;;;;;;21.87;19.67;;;10.80;99.90;;;;;;4917189;29;20826;-77
2022/10/23 03:50:20;;;;;;;23.20;21.00;;;10.70;99.90;;;;;;4917268;29;20500;-77
2022/10/23 03:52:48;;;;;;;21.50;19.33;;;10.70;99.90;;;;;;4916985;29;20504;-77
2022/10/23 03:55:17;;;;;;;21.83;19.73;;;10.70;99.90;;;;;;4918423;29;20460;-77
2022/10/23 03:57:45;;;;;;;21.50;19.50;;;10.70;99.90;;;;;;4917054;29;20904;-76
2022/10/23 04:00:14;;;;;;;23.47;21.17;;;10.60;99.90;;;;;;4919024;29;20472;-77
2022/10/23 04:02:44;;;;;;;20.00;18.20;;;10.70;99.90;;;;;;4920819;29;20452;-76
2022/10/23 04:05:14;;;;;;;16.63;15.13;;;10.60;99.90;;;;;;4918068;29;20487;-76
2022/10/23 04:07:53;;;;;;;19.00;17.03;;;10.60;99.90;;;;;;4917745;29;20464;-76
2022/10/23 04:10:21;;;;;;;18.03;16.43;;;10.60;99.90;;;;;;4916849;29;21016;-77
2022/10/23 04:12:50;;;;;;;17.53;15.83;;;10.60;99.90;;;;;;4916864;29;20495;-77
2022/10/23 04:15:18;;;;;;;18.00;16.30;;;10.60;99.90;;;;;;4916763;29;20880;-77
2022/10/23 04:17:46;;;;;;;19.53;17.73;;;10.60;99.90;;;;;;4916943;29;20475;-77
2022/10/23 04:20:15;;;;;;;18.60;16.70;;;10.60;99.90;;;;;;4916570;29;20473;-77
2022/10/23 04:22:43;;;;;;;21.57;19.57;;;10.60;99.90;;;;;;4916561;29;20520;-77
2022/10/23 04:25:13;;;;;;;19.70;17.80;;;10.50;99.90;;;;;;4916573;29;20535;-77
2022/10/23 04:27:41;;;;;;;19.10;16.13;;;10.60;99.90;;;;;;4916738;29;20448;-76
2022/10/23 04:30:11;;;;;;;17.17;15.60;;;10.50;99.90;;;;;;4916403;29;20888;-77
2022/10/23 04:32:39;;;;;;;12.77;11.47;;;10.50;99.90;;;;;;4916319;29;20547;-77
2022/10/23 04:35:08;;;;;;;18.40;16.20;;;10.50;99.90;;;;;;4916368;29;20452;-77
2022/10/23 04:37:36;;;;;;;18.20;16.37;;;10.50;99.90;;;;;;4917579;29;20675;-77
2022/10/23 04:40:07;;;;;;;17.97;16.17;;;10.50;99.90;;;;;;4916208;29;20476;-77
2022/10/23 04:42:39;;;;;;;17.27;15.53;;;10.50;99.90;;;;;;4916312;29;20808;-77
2022/10/23 04:45:08;;;;;;;18.23;16.37;;;10.50;99.90;;;;;;4918022;29;20515;-77
2022/10/23 04:47:36;;;;;;;18.30;16.67;;;10.50;99.90;;;;;;4916250;29;20479;-77
2022/10/23 04:50:06;;;;;;;17.77;16.07;;;10.50;99.90;;;;;;4916430;29;20476;-76
2022/10/23 04:52:54;;;;;;;17.73;16.03;;;10.50;99.90;;;;;;4917372;29;20475;-77
2022/10/23 04:55:52;;;;;;;17.17;15.47;;;10.50;99.90;;;;;;4919990;29;20484;-77
2022/10/23 04:58:32;;;;;;;16.17;14.60;;;10.50;99.90;;;;;;4916115;29;20452;-77
2022/10/23 05:01:02;;;;;;;16.47;14.97;;;10.50;99.90;;;;;;4916574;29;20476;-77
2022/10/23 05:03:30;;;;;;;17.07;15.27;;;10.50;99.90;;;;;;4915982;29;20472;-77
2022/10/23 05:05:59;;;;;;;15.77;14.37;;;10.40;99.90;;;;;;4916024;29;20495;-77
2022/10/23 05:08:44;;;;;;;16.07;14.47;;;10.40;99.90;;;;;;4916241;29;20445;-77
2022/10/23 05:11:21;;;;;;;14.27;12.87;;;10.40;99.90;;;;;;4915717;29;20475;-77
2022/10/23 05:13:52;;;;;;;16.57;15.07;;;10.40;99.90;;;;;;4915906;29;20543;-77
2022/10/23 05:16:32;;;;;;;17.07;15.20;;;10.40;99.90;;;;;;4915905;29;20464;-77
2022/10/23 05:19:00;;;;;;;16.13;14.53;;;10.40;99.90;;;;;;4917437;29;20435;-77
2022/10/23 05:21:32;;;;;;;16.83;15.27;;;10.40;99.90;;;;;;4915674;29;20553;-77
2022/10/23 05:24:01;;;;;;;15.70;14.20;;;10.30;99.90;;;;;;4915869;29;20448;-77
2022/10/23 05:26:30;;;;;;;16.90;15.20;;;10.30;99.90;;;;;;4915809;29;20453;-77
2022/10/23 05:29:05;;;;;;;15.67;14.20;;;10.30;99.90;;;;;;4915806;29;20455;-77
2022/10/23 05:31:35;;;;;;;14.60;13.30;;;10.30;99.90;;;;;;4915535;29;20480;-77
2022/10/23 05:34:10;;;;;;;12.67;11.37;;;10.30;99.90;;;;;;4915819;29;20975;-77
2022/10/23 05:36:44;;;;;;;16.37;14.70;;;10.30;99.90;;;;;;4916528;29;20535;-77
2022/10/23 05:39:13;;;;;;;15.87;14.37;;;10.30;99.90;;;;;;4915649;29;20444;-76
2022/10/23 05:41:41;;;;;;;15.57;14.17;;;10.20;99.90;;;;;;4915563;29;20994;-77
2022/10/23 05:44:11;;;;;;;16.27;14.57;;;10.20;99.90;;;;;;4915635;29;20452;-77
2022/10/23 05:47:09;;;;;;;16.57;14.87;;;10.20;99.90;;;;;;4916670;29;20460;-76
2022/10/23 05:49:56;;;;;;;18.90;15.23;;;10.20;99.90;;;;;;4921014;29;20838;-76
2022/10/23 05:52:45;;;;;;;15.80;14.17;;;10.20;99.90;;;;;;4920884;29;20591;-77
2022/10/23 05:55:33;;;;;;;18.80;16.80;;;10.20;99.90;;;;;;4919208;29;20822;-76
2022/10/23 05:58:16;;;;;;;18.23;16.20;;;10.20;99.90;;;;;;4919329;29;20488;-77
2022/10/23 06:01:05;;;;;;;18.37;16.33;;;10.20;99.90;;;;;;4919268;29;20468;-76
2022/10/23 06:03:54;;;;;;;17.60;16.00;;;10.20;99.90;;;;;;4919319;29;20511;-76
2022/10/23 06:06:30;;;;;;;19.03;17.37;;;10.20;99.90;;;;;;4919306;29;20460;-76
2022/10/23 06:08:58;;;;;;;19.40;17.60;;;10.10;99.90;;;;;;4919233;29;20550;-76
2022/10/23 06:11:26;;;;;;;19.40;17.80;;;10.20;99.90;;;;;;4918851;29;20479;-76
2022/10/23 06:14:00;;;;;;;18.30;16.60;;;10.10;99.90;;;;;;4918999;29;20496;-75
2022/10/23 06:16:30;;;;;;;20.00;18.23;;;10.10;99.90;;;;;;4919048;29;20448;-76
2022/10/23 06:18:59;;;;;;;20.17;18.37;;;10.10;99.90;;;;;;4918831;29;21033;-76
2022/10/23 06:21:27;;;;;;;20.53;18.63;;;10.20;99.90;;;;;;4918712;29;20468;-76
2022/10/23 06:23:56;;;;;;;20.87;18.80;;;10.10;99.90;;;;;;4921277;29;20448;-76
2022/10/23 06:26:31;;;;;;;22.27;20.10;;;10.10;99.90;;;;;;4921200;29;20459;-76
2022/10/23 06:29:11;;;;;;;19.63;17.80;;;10.10;99.90;;;;;;4920491;29;20484;-76
2022/10/23 06:31:43;;;;;;;20.60;18.53;;;10.10;99.90;;;;;;4920753;29;21053;-76
2022/10/23 06:34:12;;;;;;;19.33;17.53;;;10.10;99.90;;;;;;4922966;29;20539;-76
2022/10/23 06:36:41;;;;;;;23.97;19.03;;;10.10;99.90;;;;;;4924550;29;20539;-76
2022/10/23 06:39:35;;;;;;;18.90;17.30;;;10.10;99.90;;;;;;4926238;29;20444;-75
2022/10/23 06:42:13;;;;;;;18.70;17.10;;;10.10;99.90;;;;;;4926205;29;21037;-76
2022/10/23 06:44:56;;;;;;;19.67;17.90;;;10.10;99.90;;;;;;4931417;29;20436;-76
2022/10/23 06:47:55;;;;;;;19.80;18.10;;;10.20;99.90;;;;;;4945375;29;20439;-76
2022/10/23 06:50:42;;;;;;;20.43;18.53;;;10.20;99.90;;;;;;4923862;29;20470;-76
2022/10/23 06:53:18;;;;;;;21.03;19.23;;;10.20;99.90;;;;;;4921829;29;20849;-76
2022/10/23 06:55:52;;;;;;;20.70;18.77;;;10.20;99.90;;;;;;4923226;29;20474;-76
2022/10/23 06:58:24;;;;;;;19.63;17.83;;;10.20;99.90;;;;;;4920284;29;20470;-76
2022/10/23 07:01:12;;;;;;;18.40;16.70;;;10.20;99.90;;;;;;4920626;29;20483;-76
2022/10/23 07:03:44;;;;;;;18.57;16.77;;;10.30;99.90;;;;;;4918715;29;20449;-76
2022/10/23 07:06:14;;;;;;;20.43;18.47;;;10.30;99.90;;;;;;4918509;29;20456;-74
2022/10/23 07:08:43;;;;;;;19.13;17.23;;;10.30;99.90;;;;;;4918664;29;20463;-77
2022/10/23 07:11:31;;;;;;;17.93;16.13;;;10.30;99.90;;;;;;4919557;29;20858;-77
2022/10/23 07:13:59;;;;;;;17.80;16.20;;;10.30;99.90;;;;;;4918544;29;20483;-77
2022/10/23 07:16:27;;;;;;;17.90;16.10;;;10.40;99.90;;;;;;4918719;29;20607;-77
2022/10/23 07:18:59;;;;;;;18.17;16.43;;;10.40;99.90;;;;;;4921065;29;20464;-78
2022/10/23 07:21:29;;;;;;;18.07;16.27;;;10.50;99.90;;;;;;4923906;29;20445;-77
2022/10/23 07:24:14;;;;;;;18.50;16.70;;;10.50;99.90;;;;;;4924552;29;20454;-78
2022/10/23 07:26:46;;;;;;;19.33;17.47;;;10.50;99.90;;;;;;4926991;29;20483;-79
2022/10/23 07:29:15;;;;;;;17.80;16.10;;;10.60;99.90;;;;;;4927859;29;20464;-79
2022/10/23 07:31:43;;;;;;;17.73;15.80;;;10.60;99.90;;;;;;4928320;29;20472;-78
2022/10/23 07:34:35;;;;;;;17.07;15.47;;;10.60;99.90;;;;;;4928416;29;20476;-78
2022/10/23 07:37:22;;;;;;;23.77;21.37;;;10.70;99.90;;;;;;4923804;29;20461;-78
2022/10/23 07:39:51;;;;;;;14.33;12.87;;;10.70;99.90;;;;;;4919814;29;20958;-78
2022/10/23 07:42:19;;;;;;;17.00;15.30;;;10.80;99.90;;;;;;4921453;29;21034;-79
2022/10/23 07:44:48;;;;;;;16.07;14.57;;;10.80;99.90;;;;;;4922032;29;20453;-78
2022/10/23 07:47:16;;;;;;;15.77;14.37;;;10.80;99.90;;;;;;4922553;29;20547;-78
2022/10/23 07:49:50;;;;;;;17.47;15.77;;;10.90;99.90;;;;;;4923573;29;20472;-78
2022/10/23 07:52:20;;;;;;;17.37;15.77;;;10.90;99.90;;;;;;4921147;29;20491;-78
2022/10/23 07:55:09;;;;;;;16.23;14.53;;;10.90;99.90;;;;;;4919873;29;20982;-78
2022/10/23 07:57:40;;;;;;;17.40;15.80;;;11.00;99.90;;;;;;4919359;29;20969;-78
2022/10/23 08:00:23;;;;;;;18.17;16.33;;;11.00;99.90;;;;;;4919548;29;20523;-78
2022/10/23 08:03:07;;;;;;;17.33;15.53;;;11.00;99.90;;;;;;4920892;29;20779;-78
2022/10/23 08:05:37;;;;;;;16.77;15.13;;;11.10;99.90;;;;;;4918905;29;20480;-77
2022/10/23 08:08:05;;;;;;;16.53;15.03;;;11.20;99.90;;;;;;4920024;29;20466;-78
2022/10/23 08:10:35;;;;;;;16.87;14.70;;;11.20;99.90;;;;;;4918535;29;21081;-78
2022/10/23 08:13:05;;;;;;;16.60;14.93;;;11.20;99.90;;;;;;4918927;29;20540;-77
2022/10/23 08:15:51;;;;;;;17.37;15.67;;;11.20;99.90;;;;;;4918238;29;21029;-78
2022/10/23 08:18:41;;;;;;;17.50;15.87;;;11.30;99.90;;;;;;4920622;29;20515;-78
2022/10/23 08:21:11;;;;;;;16.23;14.67;;;11.30;99.90;;;;;;4919087;29;20499;-78
2022/10/23 08:23:39;;;;;;;15.60;14.10;;;11.40;99.90;;;;;;4919721;29;20425;-78
2022/10/23 08:26:08;;;;;;;15.83;14.10;;;11.40;99.90;;;;;;4918376;29;20523;-78
2022/10/23 08:28:37;;;;;;;14.83;13.47;;;11.40;99.90;;;;;;4918139;29;20535;-77
2022/10/23 08:31:10;;;;;;;14.53;13.10;;;11.50;99.90;;;;;;4917709;29;20559;-78
2022/10/23 08:33:40;;;;;;;15.17;13.67;;;11.50;99.90;;;;;;4917815;29;20475;-78
2022/10/23 08:36:18;;;;;;;15.27;13.77;;;11.50;99.90;;;;;;4918830;29;20452;-78
2022/10/23 08:38:47;;;;;;;15.17;13.70;;;11.50;99.90;;;;;;4918946;29;20428;-78
2022/10/23 08:41:25;;;;;;;15.50;13.40;;;11.60;99.90;;;;;;4917742;29;20528;-78
2022/10/23 08:44:07;;;;;;;14.73;13.43;;;11.50;99.90;;;;;;4917881;29;20456;-78
2022/10/23 08:46:45;;;;;;;15.33;13.83;;;11.60;99.90;;;;;;4917993;29;20483;-77
2022/10/23 08:49:30;;;;;;;15.13;13.70;;;11.70;99.90;;;;;;4919557;29;20433;-78
2022/10/23 08:52:13;;;;;;;15.30;13.77;;;11.70;99.90;;;;;;4918070;29;20483;-78
2022/10/23 08:54:52;;;;;;;13.83;12.50;;;11.80;99.90;;;;;;4919376;29;20480;-78
2022/10/23 08:57:23;;;;;;;15.50;13.50;;;11.80;99.90;;;;;;4918188;29;20462;-78
2022/10/23 08:59:58;;;;;;;14.80;13.40;;;11.90;99.90;;;;;;4918163;29;20503;-78
2022/10/23 09:02:30;;;;;;;14.73;13.43;;;11.90;99.90;;;;;;4918310;29;20431;-79
2022/10/23 09:04:59;;;;;;;17.10;14.60;;;12.00;99.90;;;;;;4916780;29;20488;-79
2022/10/23 09:07:39;;;;;;;18.97;14.80;;;12.00;99.90;;;;;;4916654;29;20527;-79
2022/10/23 09:10:29;;;;;;;14.27;12.87;;;12.10;99.90;;;;;;4918025;29;20460;-79
2022/10/23 09:13:01;;;;;;;14.50;12.97;;;12.20;99.90;;;;;;4916486;29;20436;-79
2022/10/23 09:15:35;;;;;;;14.47;13.07;;;12.20;99.90;;;;;;4916366;29;20816;-78
2022/10/23 09:18:12;;;;;;;15.90;13.30;;;12.20;99.90;;;;;;4916581;29;20961;-78
2022/10/23 09:20:42;;;;;;;14.00;12.63;;;12.30;99.90;;;;;;4916539;29;20475;-79
2022/10/23 09:23:17;;;;;;;14.17;12.10;;;12.30;99.90;;;;;;4919078;29;20989;-78
2022/10/23 09:25:47;;;;;;;13.00;11.70;;;12.40;99.90;;;;;;4920298;29;20940;-78
2022/10/23 09:28:23;;;;;;;14.13;12.93;;;12.40;99.90;;;;;;4920286;29;20464;-78
2022/10/23 09:30:52;;;;;;;12.93;11.73;;;12.50;99.90;;;;;;4920229;29;20476;-79
2022/10/23 09:33:23;;;;;;;12.10;10.90;;;12.60;99.90;;;;;;4920176;29;20523;-78
2022/10/23 09:35:54;;;;;;;13.30;10.73;;;12.60;99.90;;;;;;4921500;29;20487;-77
2022/10/23 09:38:28;;;;;;;11.60;10.50;;;12.70;99.90;;;;;;4921296;29;20446;-77
2022/10/23 09:40:59;;;;;;;12.57;10.80;;;12.70;99.90;;;;;;4921435;29;20463;-78
2022/10/23 09:43:28;;;;;;;16.77;10.67;;;12.80;99.90;;;;;;4921430;29;20440;-78
2022/10/23 09:46:03;;;;;;;12.27;11.07;;;12.90;99.90;;;;;;4920103;29;20459;-78
2022/10/23 09:48:34;;;;;;;20.10;11.00;;;12.90;99.90;;;;;;4919804;29;20452;-79
2022/10/23 09:51:04;;;;;;;13.30;12.00;;;13.00;99.90;;;;;;4919988;29;20926;-77
2022/10/23 09:53:38;;;;;;;11.30;10.20;;;13.00;99.90;;;;;;4921303;29;20424;-78
2022/10/23 09:56:21;;;;;;;12.67;11.00;;;13.10;99.90;;;;;;4920770;29;20547;-78
2022/10/23 09:58:56;;;;;;;12.03;10.93;;;13.20;99.90;;;;;;4921261;29;20424;-78
2022/10/23 10:01:25;;;;;;;11.30;10.10;;;13.30;99.90;;;;;;4920082;29;20499;-78
2022/10/23 10:04:00;;;;;;;14.87;12.07;;;13.30;99.90;;;;;;4920087;29;21046;-78
2022/10/23 10:06:33;;;;;;;11.60;10.23;;;13.40;99.90;;;;;;4919757;29;20484;-78
2022/10/23 10:09:07;;;;;;;13.60;11.70;;;13.40;99.90;;;;;;4920552;29;20444;-78
2022/10/23 10:11:42;;;;;;;11.47;10.03;;;13.50;99.90;;;;;;4918875;29;20476;-78
2022/10/23 10:14:30;;;;;;;11.60;10.40;;;13.60;99.90;;;;;;4918893;29;20514;-78
2022/10/23 10:17:03;;;;;;;11.60;10.40;;;13.60;99.90;;;;;;4918899;29;20934;-78
2022/10/23 10:19:43;;;;;;;11.63;9.13;;;13.60;99.90;;;;;;4920350;29;20444;-78
2022/10/23 10:22:24;;;;;;;10.33;9.23;;;13.70;99.90;;;;;;4920461;29;20431;-78
2022/10/23 10:25:01;;;;;;;12.10;10.80;;;13.70;99.90;;;;;;4918783;29;20445;-77
2022/10/23 10:27:41;;;;;;;10.10;9.20;;;13.70;99.90;;;;;;4918786;29;20461;-78
2022/10/23 10:30:15;;;;;;;13.20;10.00;;;13.70;99.90;;;;;;4920148;29;20879;-78
2022/10/23 10:32:50;;;;;;;13.67;9.93;;;13.80;99.90;;;;;;4919730;29;20789;-78
2022/10/23 10:35:33;;;;;;;11.30;10.00;;;13.90;99.90;;;;;;4918524;29;20467;-78
2022/10/23 10:38:18;;;;;;;11.27;10.17;;;13.90;99.90;;;;;;4919315;29;20847;-77
2022/10/23 10:41:05;;;;;;;15.20;10.27;;;14.00;99.90;;;;;;4918441;29;20532;-78
2022/10/23 10:43:43;;;;;;;13.63;10.43;;;14.00;99.90;;;;;;4918497;29;20444;-77
2022/10/23 10:46:22;;;;;;;16.93;11.30;;;14.10;99.90;;;;;;4919957;29;20433;-77
2022/10/23 10:48:59;;;;;;;12.67;9.90;;;14.10;99.90;;;;;;4918398;29;20448;-78
2022/10/23 10:51:32;;;;;;;12.87;9.07;;;14.20;99.90;;;;;;4919952;29;20456;-77
2022/10/23 10:54:15;;;;;;;12.00;9.83;;;14.20;99.90;;;;;;4920026;29;20982;-77
2022/10/23 10:56:47;;;;;;;11.00;9.83;;;14.30;99.90;;;;;;4918191;29;20819;-77
2022/10/23 10:59:23;;;;;;;12.13;10.90;;;14.30;99.90;;;;;;4919368;29;20425;-77
2022/10/23 11:01:59;;;;;;;13.13;11.37;;;14.40;99.90;;;;;;4918114;29;20474;-77
2022/10/23 11:04:35;;;;;;;12.00;10.23;;;14.50;99.90;;;;;;4923117;29;20420;-77
2022/10/23 11:07:11;;;;;;;11.37;10.27;;;14.50;99.90;;;;;;4919748;29;20460;-77
2022/10/23 11:09:40;;;;;;;13.50;10.13;;;14.60;99.90;;;;;;4919445;29;20436;-77
2022/10/23 11:12:17;;;;;;;13.63;10.63;;;14.70;99.90;;;;;;4919594;29;20488;-77
2022/10/23 11:14:46;;;;;;;10.70;9.50;;;14.70;99.90;;;;;;4919721;29;20552;-77
2022/10/23 11:17:18;;;;;;;12.17;10.90;;;14.80;99.90;;;;;;4919475;29;20503;-77
2022/10/23 11:19:56;;;;;;;11.23;9.63;;;14.90;99.90;;;;;;4918310;29;20449;-77
2022/10/23 11:22:29;;;;;;;13.67;10.47;;;14.90;99.90;;;;;;4919331;29;20455;-77
2022/10/23 11:25:22;;;;;;;11.67;9.20;;;15.00;99.90;;;;;;4919570;29;20429;-77
2022/10/23 11:28:11;;;;;;;12.07;9.60;;;15.00;99.90;;;;;;4918931;29;20458;-77
2022/10/23 11:30:54;;;;;;;13.40;10.13;;;15.00;99.90;;;;;;4917701;29;20508;-77
2022/10/23 11:33:59;;;;;;;9.30;8.37;;;15.10;99.90;;;;;;4917781;29;20578;-77
2022/10/23 11:36:43;;;;;;;10.97;8.00;;;15.10;99.90;;;;;;4919098;29;20472;-77
2022/10/23 11:39:24;;;;;;;13.63;11.47;;;15.10;99.90;;;;;;4918953;29;20420;-77
2022/10/23 11:41:57;;;;;;;10.37;9.27;;;15.20;99.90;;;;;;4917345;29;21020;-77
2022/10/23 11:44:40;;;;;;;11.43;9.33;;;15.20;99.90;;;;;;4916972;29;20452;-77
2022/10/23 11:47:30;;;;;;;11.07;9.87;;;15.30;99.90;;;;;;4918920;29;20433;-77
2022/10/23 11:50:17;;;;;;;12.53;8.80;;;15.30;99.90;;;;;;4918497;29;20466;-77
2022/10/23 11:52:58;;;;;;;13.33;10.90;;;15.40;99.90;;;;;;4918477;29;20457;-77
2022/10/23 11:55:57;;;;;;;9.73;8.00;;;15.40;99.90;;;;;;4918253;29;20487;-77
2022/10/23 11:58:30;;;;;;;14.50;12.10;;;15.50;99.90;;;;;;4917119;29;20448;-77
2022/10/23 12:01:05;;;;;;;10.63;7.90;;;15.50;99.90;;;;;;4917335;29;20527;-77
2022/10/23 12:03:47;;;;;;;10.97;9.33;;;15.50;99.90;;;;;;4918721;29;20432;-77
2022/10/23 12:06:21;;;;;;;8.90;8.03;;;15.50;99.90;;;;;;4918502;29;20424;-77
2022/10/23 12:08:53;;;;;;;9.53;8.60;;;15.60;99.90;;;;;;4918674;29;20432;-77
2022/10/23 12:11:27;;;;;;;12.73;7.80;;;15.60;99.90;;;;;;4918144;29;20480;-77
2022/10/23 12:13:55;;;;;;;8.83;7.53;;;15.60;99.90;;;;;;4918400;29;20460;-77
2022/10/23 12:16:35;;;;;;;9.07;7.83;;;15.70;99.90;;;;;;4916805;29;21069;-77
2022/10/23 12:19:20;;;;;;;10.27;8.30;;;15.70;99.90;;;;;;4918351;29;20418;-77
2022/10/23 12:21:51;;;;;;;12.03;7.97;;;15.80;99.90;;;;;;4916544;29;20575;-77
2022/10/23 12:24:43;;;;;;;10.50;7.70;;;15.90;99.90;;;;;;4916599;29;20448;-77
2022/10/23 12:27:30;;;;;;;8.53;7.73;;;15.90;99.90;;;;;;4916505;29;20444;-77
2022/10/23 12:30:14;;;;;;;9.87;7.97;;;16.00;99.90;;;;;;4916531;29;20942;-77
2022/10/23 12:33:11;;;;;;;12.77;7.80;;;16.00;99.90;;;;;;4917805;29;20427;-77
2022/10/23 12:35:55;;;;;;;11.03;7.80;;;16.10;99.90;;;;;;4916582;29;20464;-77
2022/10/23 12:38:26;;;;;;;9.33;7.60;;;16.10;99.90;;;;;;4916714;29;20449;-77
2022/10/23 12:41:06;;;;;;;10.03;7.80;;;16.10;99.90;;;;;;4916852;29;21047;-77
2022/10/23 12:43:36;;;;;;;8.20;7.40;;;16.10;99.90;;;;;;4916490;29;20414;-78
2022/10/23 12:46:18;;;;;;;8.87;7.10;;;16.20;99.90;;;;;;4916723;29;20440;-78
2022/10/23 12:48:50;;;;;;;8.20;7.40;;;16.20;99.90;;;;;;4916433;29;21012;-77
2022/10/23 12:51:23;;;;;;;10.73;9.40;;;16.20;99.90;;;;;;4916167;29;20447;-77
2022/10/23 12:53:52;;;;;;;11.90;7.87;;;16.30;99.90;;;;;;4916398;29;20451;-77
2022/10/23 12:56:20;;;;;;;8.37;6.60;;;16.30;99.90;;;;;;4917326;29;20598;-77
2022/10/23 12:58:52;;;;;;;7.60;6.90;;;16.30;99.90;;;;;;4917603;29;20448;-77
2022/10/23 13:01:25;;;;;;;7.93;7.13;;;16.30;99.90;;;;;;4916147;29;20476;-77
2022/10/23 13:04:00;;;;;;;8.47;7.50;;;16.30;99.90;;;;;;4916195;29;20448;-77
2022/10/23 13:06:29;;;;;;;9.33;6.57;;;16.30;99.90;;;;;;4916157;29;20444;-77